sensor_id;sensor_type;location;lat;lon;timestamp;pressure;altitude;pressure_sealevel;temperature;humidity
61037;BME280;72210;47.076;15.430;2024-03-02T00:01:50;96464.25;;;7.58;100.00
61037;BME280;72210;47.076;15.430;2024-03-02T00:04:17;96469.41;;;7.58;100.00
61037;BME280;72210;47.076;15.430;2024-03-02T00:06:45;96473.88;;;7.56;100.00
61037;BME280;72210;47.076;15.430;2024-03-02T00:09:15;96470.56;;;7.54;100.00
61037;BME280;72210;47.076;15.430;2024-03-02T00:11:42;96470.94;;;7.48;100.00
61037;BME280;72210;47.076;15.430;2024-03-02T00:14:10;96470.59;;;7.40;100.00
61037;BME280;72210;47.076;15.430;2024-03-02T00:16:37;96475.69;;;7.41;100.00
61037;BME280;72210;47.076;15.430;2024-03-02T00:19:07;96481.59;;;7.43;100.00
61037;BME280;72210;47.076;15.430;2024-03-02T00:21:34;96468.19;;;7.36;100.00
61037;BME280;72210;47.076;15.430;2024-03-02T00:24:08;96472.69;;;7.33;100.00
61037;BME280;72210;47.076;15.430;2024-03-02T00:26:45;96475.28;;;7.33;100.00
61037;BME280;72210;47.076;15.430;2024-03-02T00:29:15;96477.78;;;7.34;100.00
61037;BME280;72210;47.076;15.430;2024-03-02T00:31:45;96484.72;;;7.34;100.00
61037;BME280;72210;47.076;15.430;2024-03-02T00:34:17;96474.28;;;7.35;100.00
61037;BME280;72210;47.076;15.430;2024-03-02T00:36:45;96488.72;;;7.40;100.00
61037;BME280;72210;47.076;15.430;2024-03-02T00:39:15;96481.31;;;7.33;100.00
61037;BME280;72210;47.076;15.430;2024-03-02T00:41:43;96479.66;;;7.32;100.00
61037;BME280;72210;47.076;15.430;2024-03-02T00:44:12;96482.97;;;7.34;100.00
61037;BME280;72210;47.076;15.430;2024-03-02T00:46:43;96475.28;;;7.33;100.00
61037;BME280;72210;47.076;15.430;2024-03-02T00:49:18;96479.56;;;7.34;100.00
61037;BME280;72210;47.076;15.430;2024-03-02T00:51:48;96473.91;;;7.27;100.00
61037;BME280;72210;47.076;15.430;2024-03-02T00:54:19;96468.75;;;7.27;100.00
61037;BME280;72210;47.076;15.430;2024-03-02T00:56:48;96468.06;;;7.24;100.00
61037;BME280;72210;47.076;15.430;2024-03-02T00:59:15;96479.28;;;7.24;100.00
61037;BME280;72210;47.076;15.430;2024-03-02T01:01:44;96479.28;;;7.24;100.00
61037;BME280;72210;47.076;15.430;2024-03-02T01:04:12;96477.25;;;7.15;100.00
61037;BME280;72210;47.076;15.430;2024-03-02T01:06:42;96473.06;;;7.12;100.00
61037;BME280;72210;47.076;15.430;2024-03-02T01:09:13;96481.84;;;7.10;100.00
61037;BME280;72210;47.076;15.430;2024-03-02T01:11:41;96477.72;;;7.07;100.00
61037;BME280;72210;47.076;15.430;2024-03-02T01:14:09;96472.63;;;7.06;100.00
61037;BME280;72210;47.076;15.430;2024-03-02T01:16:38;96483.53;;;7.11;100.00
61037;BME280;72210;47.076;15.430;2024-03-02T01:19:06;96477.44;;;7.12;100.00
61037;BME280;72210;47.076;15.430;2024-03-02T01:21:33;96474.94;;;7.10;100.00
61037;BME280;72210;47.076;15.430;2024-03-02T01:24:03;96466.72;;;7.18;100.00
61037;BME280;72210;47.076;15.430;2024-03-02T01:26:31;96468.06;;;7.24;100.00
61037;BME280;72210;47.076;15.430;2024-03-02T01:28:59;96471.34;;;7.27;100.00
61037;BME280;72210;47.076;15.430;2024-03-02T01:31:28;96466.59;;;7.34;100.00
61037;BME280;72210;47.076;15.430;2024-03-02T01:33:55;96469.00;;;7.37;100.00
61037;BME280;72210;47.076;15.430;2024-03-02T01:36:24;96467.25;;;7.37;100.00
61037;BME280;72210;47.076;15.430;2024-03-02T01:38:51;96470.88;;;7.35;100.00
61037;BME280;72210;47.076;15.430;2024-03-02T01:41:20;96461.50;;;7.32;100.00
61037;BME280;72210;47.076;15.430;2024-03-02T01:43:47;96460.69;;;7.32;100.00
61037;BME280;72210;47.076;15.430;2024-03-02T01:46:15;96466.88;;;7.29;100.00
61037;BME280;72210;47.076;15.430;2024-03-02T01:48:42;96465.22;;;7.28;100.00
61037;BME280;72210;47.076;15.430;2024-03-02T01:51:12;96457.91;;;7.21;100.00
61037;BME280;72210;47.076;15.430;2024-03-02T01:53:39;96459.66;;;7.20;100.00
61037;BME280;72210;47.076;15.430;2024-03-02T01:56:07;96464.75;;;7.22;100.00
61037;BME280;72210;47.076;15.430;2024-03-02T01:58:35;96463.44;;;7.14;100.00
61037;BME280;72210;47.076;15.430;2024-03-02T02:01:04;96464.59;;;7.10;100.00
61037;BME280;72210;47.076;15.430;2024-03-02T02:03:31;96458.47;;;7.11;100.00
61037;BME280;72210;47.076;15.430;2024-03-02T02:05:59;96469.56;;;7.13;100.00
61037;BME280;72210;47.076;15.430;2024-03-02T02:08:26;96460.59;;;7.19;100.00
61037;BME280;72210;47.076;15.430;2024-03-02T02:10:54;96460.50;;;7.21;100.00
61037;BME280;72210;47.076;15.430;2024-03-02T02:13:21;96459.00;;;7.31;100.00
61037;BME280;72210;47.076;15.430;2024-03-02T02:15:50;96451.25;;;7.31;100.00
61037;BME280;72210;47.076;15.430;2024-03-02T02:18:18;96457.91;;;7.35;100.00
61037;BME280;72210;47.076;15.430;2024-03-02T02:20:45;96446.78;;;7.33;100.00
61037;BME280;72210;47.076;15.430;2024-03-02T02:23:14;96447.84;;;7.30;100.00
61037;BME280;72210;47.076;15.430;2024-03-02T02:25:41;96444.66;;;7.25;100.00
61037;BME280;72210;47.076;15.430;2024-03-02T02:28:09;96437.28;;;7.19;100.00
61037;BME280;72210;47.076;15.430;2024-03-02T02:30:36;96434.16;;;7.14;100.00
61037;BME280;72210;47.076;15.430;2024-03-02T02:33:04;96432.84;;;7.07;100.00
61037;BME280;72210;47.076;15.430;2024-03-02T02:35:31;96438.13;;;7.05;100.00
61037;BME280;72210;47.076;15.430;2024-03-02T02:37:59;96435.91;;;7.13;100.00
61037;BME280;72210;47.076;15.430;2024-03-02T02:40:29;96432.00;;;7.21;100.00
61037;BME280;72210;47.076;15.430;2024-03-02T02:42:56;96425.63;;;7.26;100.00
61037;BME280;72210;47.076;15.430;2024-03-02T02:45:24;96418.50;;;7.30;100.00
61037;BME280;72210;47.076;15.430;2024-03-02T02:47:51;96424.16;;;7.36;100.00
61037;BME280;72210;47.076;15.430;2024-03-02T02:50:19;96424.97;;;7.37;100.00
61037;BME280;72210;47.076;15.430;2024-03-02T02:52:46;96426.56;;;7.40;100.00
61037;BME280;72210;47.076;15.430;2024-03-02T02:55:13;96416.81;;;7.43;100.00
61037;BME280;72210;47.076;15.430;2024-03-02T02:57:42;96410.34;;;7.50;100.00
61037;BME280;72210;47.076;15.430;2024-03-02T03:00:11;96409.91;;;7.57;100.00
61037;BME280;72210;47.076;15.430;2024-03-02T03:02:40;96408.72;;;7.62;100.00
61037;BME280;72210;47.076;15.430;2024-03-02T03:05:10;96412.22;;;7.61;100.00
61037;BME280;72210;47.076;15.430;2024-03-02T03:07:40;96407.13;;;7.60;100.00
61037;BME280;72210;47.076;15.430;2024-03-02T03:10:08;96414.09;;;7.59;100.00
61037;BME280;72210;47.076;15.430;2024-03-02T03:12:36;96401.63;;;7.51;100.00
61037;BME280;72210;47.076;15.430;2024-03-02T03:15:09;96413.03;;;7.49;100.00
61037;BME280;72210;47.076;15.430;2024-03-02T03:17:36;96405.53;;;7.44;100.00
61037;BME280;72210;47.076;15.430;2024-03-02T03:20:05;96409.44;;;7.37;100.00
61037;BME280;72210;47.076;15.430;2024-03-02T03:22:33;96413.13;;;7.33;100.00
61037;BME280;72210;47.076;15.430;2024-03-02T03:25:00;96413.31;;;7.30;100.00
61037;BME280;72210;47.076;15.430;2024-03-02T03:27:28;96404.72;;;7.29;100.00
61037;BME280;72210;47.076;15.430;2024-03-02T03:29:55;96410.00;;;7.28;100.00
61037;BME280;72210;47.076;15.430;2024-03-02T03:32:24;96403.34;;;7.24;100.00
61037;BME280;72210;47.076;15.430;2024-03-02T03:34:52;96410.28;;;7.23;100.00
61037;BME280;72210;47.076;15.430;2024-03-02T03:37:19;96406.41;;;7.30;100.00
61037;BME280;72210;47.076;15.430;2024-03-02T03:39:47;96405.34;;;7.33;100.00
61037;BME280;72210;47.076;15.430;2024-03-02T03:42:14;96399.69;;;7.41;100.00
61037;BME280;72210;47.076;15.430;2024-03-02T03:44:42;96399.50;;;7.44;100.00
61037;BME280;72210;47.076;15.430;2024-03-02T03:47:10;96398.97;;;7.39;100.00
61037;BME280;72210;47.076;15.430;2024-03-02T03:49:39;96403.13;;;7.41;100.00
61037;BME280;72210;47.076;15.430;2024-03-02T03:52:07;96405.72;;;7.41;100.00
61037;BME280;72210;47.076;15.430;2024-03-02T03:54:34;96409.13;;;7.42;100.00
61037;BME280;72210;47.076;15.430;2024-03-02T03:57:02;96398.88;;;7.40;100.00
61037;BME280;72210;47.076;15.430;2024-03-02T03:59:30;96399.59;;;7.42;100.00
61037;BME280;72210;47.076;15.430;2024-03-02T04:01:57;96397.78;;;7.44;100.00
61037;BME280;72210;47.076;15.430;2024-03-02T04:04:25;96386.13;;;7.37;100.00
61037;BME280;72210;47.076;15.430;2024-03-02T04:06:54;96389.91;;;7.31;100.00
61037;BME280;72210;47.076;15.430;2024-03-02T04:09:22;96395.19;;;7.30;100.00
61037;BME280;72210;47.076;15.430;2024-03-02T04:11:50;96393.44;;;7.30;100.00
61037;BME280;72210;47.076;15.430;2024-03-02T04:14:17;96391.69;;;7.31;100.00
61037;BME280;72210;47.076;15.430;2024-03-02T04:16:44;96401.22;;;7.30;100.00
61037;BME280;72210;47.076;15.430;2024-03-02T04:19:12;96397.59;;;7.33;100.00
61037;BME280;72210;47.076;15.430;2024-03-02T04:21:40;96392.31;;;7.34;100.00
61037;BME280;72210;47.076;15.430;2024-03-02T04:24:10;96389.63;;;7.36;100.00
61037;BME280;72210;47.076;15.430;2024-03-02T04:26:37;96396.66;;;7.34;100.00
61037;BME280;72210;47.076;15.430;2024-03-02T04:29:04;96399.53;;;7.29;100.00
61037;BME280;72210;47.076;15.430;2024-03-02T04:31:32;96397.97;;;7.27;100.00
61037;BME280;72210;47.076;15.430;2024-03-02T04:33:59;96414.63;;;7.23;100.00
61037;BME280;72210;47.076;15.430;2024-03-02T04:36:27;96409.75;;;7.18;100.00
61037;BME280;72210;47.076;15.430;2024-03-02T04:38:54;96418.59;;;7.14;100.00
61037;BME280;72210;47.076;15.430;2024-03-02T04:41:24;96415.28;;;7.12;100.00
61037;BME280;72210;47.076;15.430;2024-03-02T04:43:55;96422.47;;;7.07;100.00
61037;BME280;72210;47.076;15.430;2024-03-02T04:46:23;96413.16;;;7.04;100.00
61037;BME280;72210;47.076;15.430;2024-03-02T04:48:51;96430.53;;;7.02;100.00
61037;BME280;72210;47.076;15.430;2024-03-02T04:51:19;96435.34;;;7.08;100.00
61037;BME280;72210;47.076;15.430;2024-03-02T04:53:47;96421.38;;;7.11;100.00
61037;BME280;72210;47.076;15.430;2024-03-02T04:56:14;96437.56;;;7.14;100.00
61037;BME280;72210;47.076;15.430;2024-03-02T04:58:44;96437.09;;;7.22;100.00
61037;BME280;72210;47.076;15.430;2024-03-02T05:01:11;96434.97;;;7.14;100.00
61037;BME280;72210;47.076;15.430;2024-03-02T05:03:39;96450.16;;;7.06;100.00
61037;BME280;72210;47.076;15.430;2024-03-02T05:06:06;96447.47;;;6.93;100.00
61037;BME280;72210;47.076;15.430;2024-03-02T05:08:36;96452.91;;;6.89;100.00
61037;BME280;72210;47.076;15.430;2024-03-02T05:11:03;96457.34;;;6.87;100.00
61037;BME280;72210;47.076;15.430;2024-03-02T05:13:33;96454.00;;;6.85;100.00
61037;BME280;72210;47.076;15.430;2024-03-02T05:16:06;96447.75;;;6.89;100.00
61037;BME280;72210;47.076;15.430;2024-03-02T05:18:33;96452.19;;;7.01;100.00
61037;BME280;72210;47.076;15.430;2024-03-02T05:21:00;96442.91;;;7.11;100.00
61037;BME280;72210;47.076;15.430;2024-03-02T05:23:28;96443.50;;;7.16;100.00
61037;BME280;72210;47.076;15.430;2024-03-02T05:25:55;96452.72;;;7.21;100.00
61037;BME280;72210;47.076;15.430;2024-03-02T05:28:23;96446.72;;;7.20;100.00
61037;BME280;72210;47.076;15.430;2024-03-02T05:30:50;96449.50;;;7.17;100.00
61037;BME280;72210;47.076;15.430;2024-03-02T05:33:19;96453.75;;;7.18;100.00
61037;BME280;72210;47.076;15.430;2024-03-02T05:35:47;96454.84;;;7.14;100.00
61037;BME280;72210;47.076;15.430;2024-03-02T05:38:14;96455.03;;;7.11;100.00
61037;BME280;72210;47.076;15.430;2024-03-02T05:40:41;96446.72;;;7.06;100.00
61037;BME280;72210;47.076;15.430;2024-03-02T05:43:09;96462.63;;;6.99;100.00
61037;BME280;72210;47.076;15.430;2024-03-02T05:45:36;96458.72;;;6.92;100.00
61037;BME280;72210;47.076;15.430;2024-03-02T05:48:05;96465.00;;;6.88;100.00
61037;BME280;72210;47.076;15.430;2024-03-02T05:50:34;96462.50;;;6.87;100.00
61037;BME280;72210;47.076;15.430;2024-03-02T05:53:03;96464.91;;;6.90;100.00
61037;BME280;72210;47.076;15.430;2024-03-02T05:55:31;96466.59;;;6.91;100.00
61037;BME280;72210;47.076;15.430;2024-03-02T05:57:58;96460.78;;;6.87;100.00
61037;BME280;72210;47.076;15.430;2024-03-02T06:00:25;96463.44;;;6.86;100.00
61037;BME280;72210;47.076;15.430;2024-03-02T06:02:53;96462.50;;;6.87;100.00
61037;BME280;72210;47.076;15.430;2024-03-02T06:05:21;96462.97;;;6.79;100.00
61037;BME280;72210;47.076;15.430;2024-03-02T06:07:52;96469.06;;;6.78;100.00
61037;BME280;72210;47.076;15.430;2024-03-02T06:10:19;96472.84;;;6.72;100.00
61037;BME280;72210;47.076;15.430;2024-03-02T06:12:49;96471.84;;;6.75;100.00
61037;BME280;72210;47.076;15.430;2024-03-02T06:15:18;96480.06;;;6.81;100.00
61037;BME280;72210;47.076;15.430;2024-03-02T06:17:45;96484.16;;;6.86;100.00
61037;BME280;72210;47.076;15.430;2024-03-02T06:20:13;96472.22;;;6.83;100.00
61037;BME280;72210;47.076;15.430;2024-03-02T06:22:40;96482.13;;;6.91;100.00
61037;BME280;72210;47.076;15.430;2024-03-02T06:25:09;96484.44;;;6.95;100.00
61037;BME280;72210;47.076;15.430;2024-03-02T06:27:36;96490.84;;;7.04;100.00
61037;BME280;72210;47.076;15.430;2024-03-02T06:30:04;96489.44;;;7.13;100.00
61037;BME280;72210;47.076;15.430;2024-03-02T06:32:32;96487.69;;;7.13;100.00
61037;BME280;72210;47.076;15.430;2024-03-02T06:35:04;96497.88;;;7.16;100.00
61037;BME280;72210;47.076;15.430;2024-03-02T06:37:32;96485.56;;;7.20;100.00
61037;BME280;72210;47.076;15.430;2024-03-02T06:40:00;96496.47;;;7.25;100.00
61037;BME280;72210;47.076;15.430;2024-03-02T06:42:29;96493.31;;;7.34;100.00
61037;BME280;72210;47.076;15.430;2024-03-02T06:44:57;96492.75;;;7.44;100.00
61037;BME280;72210;47.076;15.430;2024-03-02T06:47:25;96499.88;;;7.54;100.00
61037;BME280;72210;47.076;15.430;2024-03-02T06:49:53;96495.06;;;7.63;100.00
61037;BME280;72210;47.076;15.430;2024-03-02T06:52:21;96487.66;;;7.71;100.00
61037;BME280;72210;47.076;15.430;2024-03-02T06:54:51;96486.31;;;7.78;100.00
61037;BME280;72210;47.076;15.430;2024-03-02T06:57:18;96477.44;;;7.82;100.00
61037;BME280;72210;47.076;15.430;2024-03-02T06:59:47;96478.16;;;7.84;100.00
61037;BME280;72210;47.076;15.430;2024-03-02T07:02:14;96470.94;;;7.89;100.00
61037;BME280;72210;47.076;15.430;2024-03-02T07:04:42;96477.50;;;7.95;100.00
61037;BME280;72210;47.076;15.430;2024-03-02T07:07:09;96468.59;;;7.99;100.00
61037;BME280;72210;47.076;15.430;2024-03-02T07:09:39;96471.81;;;8.03;100.00
61037;BME280;72210;47.076;15.430;2024-03-02T07:12:07;96471.72;;;8.04;100.00
61037;BME280;72210;47.076;15.430;2024-03-02T07:14:35;96469.78;;;8.08;100.00
61037;BME280;72210;47.076;15.430;2024-03-02T07:17:04;96462.81;;;8.08;100.00
61037;BME280;72210;47.076;15.430;2024-03-02T07:19:31;96462.72;;;8.10;100.00
61037;BME280;72210;47.076;15.430;2024-03-02T07:21:59;96457.34;;;8.13;100.00
61037;BME280;72210;47.076;15.430;2024-03-02T07:24:27;96454.25;;;8.21;100.00
61037;BME280;72210;47.076;15.430;2024-03-02T07:26:54;96462.47;;;8.27;100.00
61037;BME280;72210;47.076;15.430;2024-03-02T07:29:22;96456.56;;;8.38;100.00
61037;BME280;72210;47.076;15.430;2024-03-02T07:31:49;96465.38;;;8.50;100.00
61037;BME280;72210;47.076;15.430;2024-03-02T07:34:20;96452.31;;;8.65;100.00
61037;BME280;72210;47.076;15.430;2024-03-02T07:36:47;96449.50;;;8.80;100.00
61037;BME280;72210;47.076;15.430;2024-03-02T07:39:14;96455.66;;;8.92;100.00
61037;BME280;72210;47.076;15.430;2024-03-02T07:41:42;96448.66;;;9.06;100.00
61037;BME280;72210;47.076;15.430;2024-03-02T07:44:10;96454.28;;;9.25;100.00
61037;BME280;72210;47.076;15.430;2024-03-02T07:46:38;96451.34;;;9.30;100.00
61037;BME280;72210;47.076;15.430;2024-03-02T07:49:05;96449.25;;;9.35;100.00
61037;BME280;72210;47.076;15.430;2024-03-02T07:51:34;96449.59;;;9.43;100.00
61037;BME280;72210;47.076;15.430;2024-03-02T07:54:02;96435.50;;;9.59;100.00
61037;BME280;72210;47.076;15.430;2024-03-02T07:56:30;96448.25;;;9.75;100.00
61037;BME280;72210;47.076;15.430;2024-03-02T07:58:58;96443.59;;;9.91;100.00
61037;BME280;72210;47.076;15.430;2024-03-02T08:01:26;96440.84;;;10.05;100.00
61037;BME280;72210;47.076;15.430;2024-03-02T08:03:54;96434.66;;;10.19;100.00
61037;BME280;72210;47.076;15.430;2024-03-02T08:06:22;96442.06;;;10.37;100.00
61037;BME280;72210;47.076;15.430;2024-03-02T08:08:52;96439.13;;;10.41;100.00
61037;BME280;72210;47.076;15.430;2024-03-02T08:11:19;96440.50;;;10.34;100.00
61037;BME280;72210;47.076;15.430;2024-03-02T08:13:47;96445.09;;;10.31;100.00
61037;BME280;72210;47.076;15.430;2024-03-02T08:16:14;96437.47;;;10.16;100.00
61037;BME280;72210;47.076;15.430;2024-03-02T08:18:42;96436.03;;;10.12;100.00
61037;BME280;72210;47.076;15.430;2024-03-02T08:21:10;96448.59;;;10.18;100.00
61037;BME280;72210;47.076;15.430;2024-03-02T08:23:37;96436.81;;;10.26;100.00
61037;BME280;72210;47.076;15.430;2024-03-02T08:26:10;96441.38;;;10.22;100.00
61037;BME280;72210;47.076;15.430;2024-03-02T08:28:37;96440.13;;;10.28;100.00
61037;BME280;72210;47.076;15.430;2024-03-02T08:31:06;96437.97;;;10.46;100.00
61037;BME280;72210;47.076;15.430;2024-03-02T08:33:34;96439.63;;;10.58;100.00
61037;BME280;72210;47.076;15.430;2024-03-02T08:36:05;96435.03;;;10.50;100.00
61037;BME280;72210;47.076;15.430;2024-03-02T08:38:33;96430.06;;;10.58;100.00
61037;BME280;72210;47.076;15.430;2024-03-02T08:41:00;96428.19;;;10.72;100.00
61037;BME280;72210;47.076;15.430;2024-03-02T08:43:29;96429.38;;;10.68;100.00
61037;BME280;72210;47.076;15.430;2024-03-02T08:45:57;96428.88;;;10.63;100.00
61037;BME280;72210;47.076;15.430;2024-03-02T08:48:26;96429.72;;;10.52;100.00
61037;BME280;72210;47.076;15.430;2024-03-02T08:50:54;96438.34;;;10.52;100.00
61037;BME280;72210;47.076;15.430;2024-03-02T08:53:21;96425.13;;;10.78;100.00
61037;BME280;72210;47.076;15.430;2024-03-02T08:55:48;96424.34;;;11.00;100.00
61037;BME280;72210;47.076;15.430;2024-03-02T08:58:16;96427.06;;;11.10;100.00
61037;BME280;72210;47.076;15.430;2024-03-02T09:00:46;96437.00;;;11.39;100.00
61037;BME280;72210;47.076;15.430;2024-03-02T09:03:14;96423.78;;;12.29;100.00
61037;BME280;72210;47.076;15.430;2024-03-02T09:05:41;96418.31;;;13.26;100.00
61037;BME280;72210;47.076;15.430;2024-03-02T09:08:10;96423.63;;;14.35;100.00
61037;BME280;72210;47.076;15.430;2024-03-02T09:10:37;96424.78;;;15.10;98.84
61037;BME280;72210;47.076;15.430;2024-03-02T09:13:05;96413.38;;;15.66;95.29
61037;BME280;72210;47.076;15.430;2024-03-02T09:15:33;96414.06;;;16.14;81.23
61037;BME280;72210;47.076;15.430;2024-03-02T09:18:05;96422.16;;;16.57;77.29
61037;BME280;72210;47.076;15.430;2024-03-02T09:20:34;96423.81;;;16.84;72.85
61037;BME280;72210;47.076;15.430;2024-03-02T09:23:02;96418.41;;;16.85;72.36
61037;BME280;72210;47.076;15.430;2024-03-02T09:25:29;96420.56;;;16.64;70.97
61037;BME280;72210;47.076;15.430;2024-03-02T09:27:57;96429.19;;;16.56;74.54
61037;BME280;72210;47.076;15.430;2024-03-02T09:30:24;96429.56;;;15.61;82.96
61037;BME280;72210;47.076;15.430;2024-03-02T09:32:54;96424.63;;;15.58;87.95
61037;BME280;72210;47.076;15.430;2024-03-02T09:35:43;96428.09;;;16.59;76.00
61037;BME280;72210;47.076;15.430;2024-03-02T09:38:11;96434.34;;;16.40;75.73
61037;BME280;72210;47.076;15.430;2024-03-02T09:40:41;96432.09;;;15.81;81.26
61037;BME280;72210;47.076;15.430;2024-03-02T09:43:09;96430.34;;;14.97;91.15
61037;BME280;72210;47.076;15.430;2024-03-02T09:45:37;96434.84;;;15.52;89.10
61037;BME280;72210;47.076;15.430;2024-03-02T09:48:07;96429.50;;;16.17;79.98
61037;BME280;72210;47.076;15.430;2024-03-02T09:50:36;96433.78;;;16.54;73.17
61037;BME280;72210;47.076;15.430;2024-03-02T09:53:07;96425.88;;;15.82;78.17
61037;BME280;72210;47.076;15.430;2024-03-02T09:55:35;96431.41;;;15.14;88.68
61037;BME280;72210;47.076;15.430;2024-03-02T09:58:03;96426.66;;;14.21;98.63
61037;BME280;72210;47.076;15.430;2024-03-02T10:00:31;96422.47;;;13.79;100.00
61037;BME280;72210;47.076;15.430;2024-03-02T10:02:58;96422.06;;;13.74;100.00
61037;BME280;72210;47.076;15.430;2024-03-02T10:05:27;96418.28;;;14.08;100.00
61037;BME280;72210;47.076;15.430;2024-03-02T10:08:00;96421.28;;;14.23;100.00
61037;BME280;72210;47.076;15.430;2024-03-02T10:10:37;96428.88;;;14.84;99.46
61037;BME280;72210;47.076;15.430;2024-03-02T10:13:05;96433.84;;;14.68;99.24
61037;BME280;72210;47.076;15.430;2024-03-02T10:15:35;96425.50;;;15.39;94.67
61037;BME280;72210;47.076;15.430;2024-03-02T10:18:03;96424.88;;;17.09;73.43
61037;BME280;72210;47.076;15.430;2024-03-02T10:20:30;96424.84;;;17.86;62.07
61037;BME280;72210;47.076;15.430;2024-03-02T10:23:09;96439.34;;;18.74;54.82
61037;BME280;72210;47.076;15.430;2024-03-02T10:25:38;96431.41;;;19.63;50.71
61037;BME280;72210;47.076;15.430;2024-03-02T10:28:20;96431.44;;;20.49;48.40
61037;BME280;72210;47.076;15.430;2024-03-02T10:30:47;96428.72;;;19.71;49.76
61037;BME280;72210;47.076;15.430;2024-03-02T10:33:17;96425.84;;;19.58;49.73
61037;BME280;72210;47.076;15.430;2024-03-02T10:35:47;96433.19;;;20.57;47.27
61037;BME280;72210;47.076;15.430;2024-03-02T10:38:16;96427.00;;;22.65;42.60
61037;BME280;72210;47.076;15.430;2024-03-02T10:40:48;96425.19;;;24.61;37.83
61037;BME280;72210;47.076;15.430;2024-03-02T10:43:17;96412.13;;;26.30;34.47
61037;BME280;72210;47.076;15.430;2024-03-02T10:45:48;96414.66;;;27.51;32.55
61037;BME280;72210;47.076;15.430;2024-03-02T10:48:16;96410.28;;;28.54;31.04
61037;BME280;72210;47.076;15.430;2024-03-02T10:50:44;96405.31;;;28.70;28.96
61037;BME280;72210;47.076;15.430;2024-03-02T10:53:11;96396.97;;;28.36;29.64
61037;BME280;72210;47.076;15.430;2024-03-02T10:55:38;96399.78;;;28.95;28.24
61037;BME280;72210;47.076;15.430;2024-03-02T10:58:12;96399.78;;;28.95;27.90
61037;BME280;72210;47.076;15.430;2024-03-02T11:00:41;96395.63;;;29.23;27.40
61037;BME280;72210;47.076;15.430;2024-03-02T11:03:12;96392.75;;;28.82;27.69
61037;BME280;72210;47.076;15.430;2024-03-02T11:05:43;96384.84;;;28.99;27.18
61037;BME280;72210;47.076;15.430;2024-03-02T11:08:13;96379.94;;;28.96;27.26
61037;BME280;72210;47.076;15.430;2024-03-02T11:10:48;96390.44;;;29.09;27.07
61037;BME280;72210;47.076;15.430;2024-03-02T11:13:21;96374.88;;;29.70;26.46
61037;BME280;72210;47.076;15.430;2024-03-02T11:15:50;96375.34;;;29.67;25.48
61037;BME280;72210;47.076;15.430;2024-03-02T11:18:19;96369.50;;;30.40;25.90
61037;BME280;72210;47.076;15.430;2024-03-02T11:20:47;96371.06;;;31.21;24.07
61037;BME280;72210;47.076;15.430;2024-03-02T11:23:15;96369.44;;;30.86;24.82
61037;BME280;72210;47.076;15.430;2024-03-02T11:25:44;96371.25;;;31.75;23.67
61037;BME280;72210;47.076;15.430;2024-03-02T11:28:12;96354.16;;;32.68;22.81
61037;BME280;72210;47.076;15.430;2024-03-02T11:30:51;96353.94;;;32.15;23.52
61037;BME280;72210;47.076;15.430;2024-03-02T11:33:26;96351.59;;;32.02;23.16
61037;BME280;72210;47.076;15.430;2024-03-02T11:35:56;96343.56;;;32.29;22.81
61037;BME280;72210;47.076;15.430;2024-03-02T11:38:28;96338.94;;;32.89;22.60
61037;BME280;72210;47.076;15.430;2024-03-02T11:40:59;96341.19;;;32.65;22.70
61037;BME280;72210;47.076;15.430;2024-03-02T11:43:28;96344.28;;;32.84;22.85
61037;BME280;72210;47.076;15.430;2024-03-02T11:46:00;96343.19;;;32.80;22.62
61037;BME280;72210;47.076;15.430;2024-03-02T11:48:30;96341.66;;;32.89;22.51
61037;BME280;72210;47.076;15.430;2024-03-02T11:50:58;96342.34;;;32.74;22.40
61037;BME280;72210;47.076;15.430;2024-03-02T11:53:27;96331.97;;;32.61;22.85
61037;BME280;72210;47.076;15.430;2024-03-02T11:55:58;96331.91;;;31.96;22.93
61037;BME280;72210;47.076;15.430;2024-03-02T11:58:27;96329.59;;;31.83;23.03
61037;BME280;72210;47.076;15.430;2024-03-02T12:00:54;96326.59;;;31.35;23.57
61037;BME280;72210;47.076;15.430;2024-03-02T12:03:25;96327.16;;;31.81;22.99
61037;BME280;72210;47.076;15.430;2024-03-02T12:05:54;96315.00;;;32.01;23.50
61037;BME280;72210;47.076;15.430;2024-03-02T12:08:22;96323.66;;;31.81;22.78
61037;BME280;72210;47.076;15.430;2024-03-02T12:10:57;96319.06;;;31.15;22.88
61037;BME280;72210;47.076;15.430;2024-03-02T12:13:25;96318.53;;;31.35;23.33
61037;BME280;72210;47.076;15.430;2024-03-02T12:15:53;96306.78;;;30.17;24.20
61037;BME280;72210;47.076;15.430;2024-03-02T12:18:23;96298.34;;;27.23;26.28
61037;BME280;72210;47.076;15.430;2024-03-02T12:20:52;96297.41;;;24.81;29.47
61037;BME280;72210;47.076;15.430;2024-03-02T12:23:20;96295.22;;;22.72;32.79
61037;BME280;72210;47.076;15.430;2024-03-02T12:25:47;96300.34;;;21.44;35.23
61037;BME280;72210;47.076;15.430;2024-03-02T12:28:15;96299.34;;;20.56;37.48
61037;BME280;72210;47.076;15.430;2024-03-02T12:30:43;96303.75;;;20.02;38.90
61037;BME280;72210;47.076;15.430;2024-03-02T12:33:12;96302.00;;;19.63;40.25
61037;BME280;72210;47.076;15.430;2024-03-02T12:35:42;96291.97;;;19.27;39.98
61037;BME280;72210;47.076;15.430;2024-03-02T12:38:10;96292.94;;;18.95;41.40
61037;BME280;72210;47.076;15.430;2024-03-02T12:40:38;96292.69;;;18.57;43.23
61037;BME280;72210;47.076;15.430;2024-03-02T12:43:06;96291.34;;;18.61;43.88
61037;BME280;72210;47.076;15.430;2024-03-02T12:45:34;96290.72;;;18.42;44.29
61037;BME280;72210;47.076;15.430;2024-03-02T12:48:01;96290.72;;;18.34;45.10
61037;BME280;72210;47.076;15.430;2024-03-02T12:50:29;96282.81;;;18.42;45.44
61037;BME280;72210;47.076;15.430;2024-03-02T12:52:59;96280.00;;;18.52;45.09
61037;BME280;72210;47.076;15.430;2024-03-02T12:55:27;96282.00;;;18.17;46.75